sensor_id;sensor_type;location;lat;lon;timestamp;pressure;altitude;pressure_sealevel;temperature;humidity
67015;BME280;1033;52.560;13.374;2023-09-19T00:01:41;100032.56;;;18.15;100.00
67015;BME280;1033;52.560;13.374;2023-09-19T00:04:12;100024.38;;;18.25;100.00
67015;BME280;1033;52.560;13.374;2023-09-19T00:06:42;100034.53;;;18.20;100.00
67015;BME280;1033;52.560;13.374;2023-09-19T00:09:12;100025.75;;;18.08;100.00
67015;BME280;1033;52.560;13.374;2023-09-19T00:11:42;100031.78;;;18.15;100.00
67015;BME280;1033;52.560;13.374;2023-09-19T00:14:12;100031.78;;;18.20;100.00
67015;BME280;1033;52.560;13.374;2023-09-19T00:16:41;100027.38;;;18.09;100.00
67015;BME280;1033;52.560;13.374;2023-09-19T00:19:11;100019.16;;;18.04;100.00
67015;BME280;1033;52.560;13.374;2023-09-19T00:21:42;100015.34;;;18.10;100.00
67015;BME280;1033;52.560;13.374;2023-09-19T00:24:11;100016.44;;;18.04;100.00
67015;BME280;1033;52.560;13.374;2023-09-19T00:26:43;100010.69;;;17.95;100.00
67015;BME280;1033;52.560;13.374;2023-09-19T00:29:16;100022.72;;;17.89;100.00
67015;BME280;1033;52.560;13.374;2023-09-19T00:31:45;100022.97;;;17.93;100.00
67015;BME280;1033;52.560;13.374;2023-09-19T00:34:15;100023.00;;;18.03;100.00
67015;BME280;1033;52.560;13.374;2023-09-19T00:40:54;100017.22;;;17.84;100.00
67015;BME280;1033;52.560;13.374;2023-09-19T00:43:29;100021.34;;;17.97;100.00
67015;BME280;1033;52.560;13.374;2023-09-19T00:46:04;100019.69;;;17.86;100.00
67015;BME280;1033;52.560;13.374;2023-09-19T00:48:40;100021.84;;;17.73;100.00
67015;BME280;1033;52.560;13.374;2023-09-19T00:51:12;100021.03;;;17.78;100.00
67015;BME280;1033;52.560;13.374;2023-09-19T00:53:47;100019.66;;;17.70;100.00
67015;BME280;1033;52.560;13.374;2023-09-19T00:56:16;100019.66;;;17.70;100.00
67015;BME280;1033;52.560;13.374;2023-09-19T00:58:49;100017.47;;;17.72;100.00
67015;BME280;1033;52.560;13.374;2023-09-19T01:01:19;100025.97;;;17.81;100.00
67015;BME280;1033;52.560;13.374;2023-09-19T01:03:48;100020.75;;;17.74;100.00
67015;BME280;1033;52.560;13.374;2023-09-19T01:06:18;100028.69;;;17.66;100.00
67015;BME280;1033;52.560;13.374;2023-09-19T01:08:48;100020.47;;;17.71;100.00
67015;BME280;1033;52.560;13.374;2023-09-19T01:11:21;100020.50;;;17.76;100.00
67015;BME280;1033;52.560;13.374;2023-09-19T01:14:15;100023.22;;;17.71;100.00
67015;BME280;1033;52.560;13.374;2023-09-19T01:16:56;100020.22;;;17.83;100.00
67015;BME280;1033;52.560;13.374;2023-09-19T01:19:51;100024.34;;;17.80;100.00
67015;BME280;1033;52.560;13.374;2023-09-19T01:26:05;100030.91;;;17.79;100.00
67015;BME280;1033;52.560;13.374;2023-09-19T01:28:53;100031.72;;;17.74;100.00
67015;BME280;1033;52.560;13.374;2023-09-19T01:31:31;100042.13;;;17.88;100.00
67015;BME280;1033;52.560;13.374;2023-09-19T01:34:02;100033.38;;;17.86;100.00
67015;BME280;1033;52.560;13.374;2023-09-19T01:36:35;100029.53;;;17.92;100.00
67015;BME280;1033;52.560;13.374;2023-09-19T01:39:08;100033.13;;;18.02;100.00
67015;BME280;1033;52.560;13.374;2023-09-19T01:41:50;100032.84;;;18.04;100.00
67015;BME280;1033;52.560;13.374;2023-09-19T01:44:25;100036.69;;;18.08;100.00
67015;BME280;1033;52.560;13.374;2023-09-19T01:47:08;100041.09;;;18.14;100.00
67015;BME280;1033;52.560;13.374;2023-09-19T01:49:44;100039.44;;;18.18;100.00
67015;BME280;1033;52.560;13.374;2023-09-19T01:52:21;100043.81;;;18.04;100.00
67015;BME280;1033;52.560;13.374;2023-09-19T01:54:59;100036.66;;;17.88;100.00
67015;BME280;1033;52.560;13.374;2023-09-19T01:57:36;100028.16;;;17.79;100.00
67015;BME280;1033;52.560;13.374;2023-09-19T02:00:16;100028.97;;;17.69;100.00
67015;BME280;1033;52.560;13.374;2023-09-19T02:03:04;100037.91;;;17.55;100.00
67015;BME280;1033;52.560;13.374;2023-09-19T02:05:33;100041.72;;;17.49;100.00
67015;BME280;1033;52.560;13.374;2023-09-19T02:12:23;100053.88;;;17.16;100.00
67015;BME280;1033;52.560;13.374;2023-09-19T02:14:52;100057.66;;;17.10;100.00
67015;BME280;1033;52.560;13.374;2023-09-19T02:17:22;100056.06;;;17.19;100.00
67015;BME280;1033;52.560;13.374;2023-09-19T02:19:55;100060.41;;;17.10;100.00
67015;BME280;1033;52.560;13.374;2023-09-19T02:22:24;100056.56;;;17.06;100.00
67015;BME280;1033;52.560;13.374;2023-09-19T02:24:53;100065.28;;;17.03;100.00
67015;BME280;1033;52.560;13.374;2023-09-19T02:27:26;100064.09;;;16.88;100.00
67015;BME280;1033;52.560;13.374;2023-09-19T02:29:55;100067.91;;;16.87;100.00
67015;BME280;1033;52.560;13.374;2023-09-19T02:32:25;100070.59;;;16.77;100.00
67015;BME280;1033;52.560;13.374;2023-09-19T02:34:55;100064.00;;;16.73;100.00
67015;BME280;1033;52.560;13.374;2023-09-19T02:37:31;100071.09;;;16.69;100.00
67015;BME280;1033;52.560;13.374;2023-09-19T02:40:03;100067.78;;;16.67;100.00
67015;BME280;1033;52.560;13.374;2023-09-19T02:42:47;100072.69;;;16.65;100.00
67015;BME280;1033;52.560;13.374;2023-09-19T02:45:17;100079.41;;;16.58;100.00
67015;BME280;1033;52.560;13.374;2023-09-19T02:47:47;100081.31;;;16.57;100.00
67015;BME280;1033;52.560;13.374;2023-09-19T02:50:19;100091.19;;;16.58;100.00
67015;BME280;1033;52.560;13.374;2023-09-19T02:52:48;100087.28;;;16.49;100.00
67015;BME280;1033;52.560;13.374;2023-09-19T02:55:23;100084.41;;;16.66;100.00
67015;BME280;1033;52.560;13.374;2023-09-19T02:57:54;100094.75;;;16.59;100.00
67015;BME280;1033;52.560;13.374;2023-09-19T03:00:23;100093.28;;;16.51;100.00
67015;BME280;1033;52.560;13.374;2023-09-19T03:02:54;100093.28;;;16.51;100.00
67015;BME280;1033;52.560;13.374;2023-09-19T03:05:26;100096.75;;;16.68;100.00
67015;BME280;1033;52.560;13.374;2023-09-19T03:07:59;100098.13;;;16.71;100.00
67015;BME280;1033;52.560;13.374;2023-09-19T03:10:30;100100.81;;;16.66;100.00
67015;BME280;1033;52.560;13.374;2023-09-19T03:12:59;100103.16;;;16.84;100.00
67015;BME280;1033;52.560;13.374;2023-09-19T03:15:30;100098.53;;;16.84;100.00
67015;BME280;1033;52.560;13.374;2023-09-19T03:17:59;100106.25;;;16.98;100.00
67015;BME280;1033;52.560;13.374;2023-09-19T03:20:31;100099.16;;;17.02;100.00
67015;BME280;1033;52.560;13.374;2023-09-19T03:23:00;100107.16;;;17.08;100.00
67015;BME280;1033;52.560;13.374;2023-09-19T03:25:33;100110.72;;;17.14;100.00
67015;BME280;1033;52.560;13.374;2023-09-19T03:28:04;100126.31;;;17.13;100.00
67015;BME280;1033;52.560;13.374;2023-09-19T03:30:35;100127.44;;;17.17;100.00
67015;BME280;1033;52.560;13.374;2023-09-19T03:33:06;100128.78;;;17.20;100.00
67015;BME280;1033;52.560;13.374;2023-09-19T03:35:37;100127.09;;;17.09;100.00
67015;BME280;1033;52.560;13.374;2023-09-19T03:38:07;100128.25;;;17.18;100.00
67015;BME280;1033;52.560;13.374;2023-09-19T03:40:37;100134.00;;;17.21;100.00
67015;BME280;1033;52.560;13.374;2023-09-19T03:43:06;100128.28;;;17.23;100.00
67015;BME280;1033;52.560;13.374;2023-09-19T03:45:35;100136.47;;;17.18;100.00
67015;BME280;1033;52.560;13.374;2023-09-19T03:48:09;100132.53;;;17.04;100.00
67015;BME280;1033;52.560;13.374;2023-09-19T03:50:40;100138.59;;;17.11;100.00
67015;BME280;1033;52.560;13.374;2023-09-19T03:53:09;100146.84;;;17.21;99.89
67015;BME280;1033;52.560;13.374;2023-09-19T03:55:38;100143.31;;;17.25;97.06
67015;BME280;1033;52.560;13.374;2023-09-19T03:58:09;100142.44;;;17.15;98.40
67015;BME280;1033;52.560;13.374;2023-09-19T04:00:39;100147.06;;;17.14;97.87
67015;BME280;1033;52.560;13.374;2023-09-19T04:03:08;100150.59;;;17.10;97.94
67015;BME280;1033;52.560;13.374;2023-09-19T04:05:48;100154.38;;;16.99;98.85
67015;BME280;1033;52.560;13.374;2023-09-19T04:08:17;100163.16;;;17.06;97.97
67015;BME280;1033;52.560;13.374;2023-09-19T04:10:49;100155.69;;;16.96;98.92
67015;BME280;1033;52.560;13.374;2023-09-19T04:13:19;100158.09;;;16.87;99.93
67015;BME280;1033;52.560;13.374;2023-09-19T04:15:48;100158.09;;;16.87;99.21
67015;BME280;1033;52.560;13.374;2023-09-19T04:18:21;100151.28;;;16.90;98.56
67015;BME280;1033;52.560;13.374;2023-09-19T04:20:53;100155.31;;;16.82;98.46
67015;BME280;1033;52.560;13.374;2023-09-19T04:23:24;100160.75;;;16.77;97.91
67015;BME280;1033;52.560;13.374;2023-09-19T04:25:53;100169.97;;;16.71;98.35
67015;BME280;1033;52.560;13.374;2023-09-19T04:28:22;100169.09;;;16.66;98.83
67015;BME280;1033;52.560;13.374;2023-09-19T04:30:52;100176.44;;;16.60;98.57
67015;BME280;1033;52.560;13.374;2023-09-19T04:33:20;100172.22;;;16.52;98.54
67015;BME280;1033;52.560;13.374;2023-09-19T04:35:52;100175.97;;;16.68;97.07
67015;BME280;1033;52.560;13.374;2023-09-19T04:38:22;100177.53;;;16.59;97.06
67015;BME280;1033;52.560;13.374;2023-09-19T04:40:57;100181.44;;;16.68;95.68
67015;BME280;1033;52.560;13.374;2023-09-19T04:43:30;100190.75;;;16.72;94.92
67015;BME280;1033;52.560;13.374;2023-09-19T04:46:27;100183.53;;;16.61;95.26
67015;BME280;1033;52.560;13.374;2023-09-19T04:48:56;100196.41;;;16.66;95.09
67015;BME280;1033;52.560;13.374;2023-09-19T04:51:27;100200.94;;;16.55;95.82
67015;BME280;1033;52.560;13.374;2023-09-19T04:54:00;100197.53;;;16.43;96.73
67015;BME280;1033;52.560;13.374;2023-09-19T04:56:30;100200.78;;;16.40;97.53
67015;BME280;1033;52.560;13.374;2023-09-19T04:58:59;100202.44;;;16.41;97.07
67015;BME280;1033;52.560;13.374;2023-09-19T05:01:29;100209.59;;;16.47;96.40
67015;BME280;1033;52.560;13.374;2023-09-19T05:03:58;100207.38;;;16.44;96.69
67015;BME280;1033;52.560;13.374;2023-09-19T05:06:29;100214.94;;;16.37;97.31
67015;BME280;1033;52.560;13.374;2023-09-19T05:08:59;100211.19;;;16.43;96.27
67015;BME280;1033;52.560;13.374;2023-09-19T05:11:29;100213.38;;;16.41;96.35
67015;BME280;1033;52.560;13.374;2023-09-19T05:13:58;100215.22;;;16.35;96.82
67015;BME280;1033;52.560;13.374;2023-09-19T05:16:31;100218.38;;;16.27;98.18
67015;BME280;1033;52.560;13.374;2023-09-19T05:19:01;100227.47;;;16.33;97.26
67015;BME280;1033;52.560;13.374;2023-09-19T05:21:32;100221.94;;;16.28;98.62
67015;BME280;1033;52.560;13.374;2023-09-19T05:24:02;100225.00;;;16.31;97.62
67015;BME280;1033;52.560;13.374;2023-09-19T05:26:31;100240.22;;;16.27;98.17
67015;BME280;1033;52.560;13.374;2023-09-19T05:29:00;100240.03;;;16.34;97.56
67015;BME280;1033;52.560;13.374;2023-09-19T05:31:31;100233.44;;;16.30;97.68
67015;BME280;1033;52.560;13.374;2023-09-19T05:34:00;100243.34;;;16.36;97.30
67015;BME280;1033;52.560;13.374;2023-09-19T05:36:29;100246.63;;;16.38;96.70
67015;BME280;1033;52.560;13.374;2023-09-19T05:39:00;100244.41;;;16.35;97.11
67015;BME280;1033;52.560;13.374;2023-09-19T05:41:31;100244.34;;;16.30;96.76
67015;BME280;1033;52.560;13.374;2023-09-19T05:44:00;100252.09;;;16.38;96.58
67015;BME280;1033;52.560;13.374;2023-09-19T05:46:30;100258.19;;;16.45;95.35
67015;BME280;1033;52.560;13.374;2023-09-19T05:49:00;100259.81;;;16.46;95.28
67015;BME280;1033;52.560;13.374;2023-09-19T05:51:29;100263.13;;;16.48;95.27
67015;BME280;1033;52.560;13.374;2023-09-19T05:53:59;100275.50;;;16.56;94.64
67015;BME280;1033;52.560;13.374;2023-09-19T05:56:28;100268.84;;;16.46;94.79
67015;BME280;1033;52.560;13.374;2023-09-19T06:03:09;100284.72;;;16.71;92.71
67015;BME280;1033;52.560;13.374;2023-09-19T06:05:39;100295.75;;;16.81;92.56
67015;BME280;1033;52.560;13.374;2023-09-19T06:08:09;100291.75;;;16.89;92.31
67015;BME280;1033;52.560;13.374;2023-09-19T06:10:39;100299.22;;;16.99;90.96
67015;BME280;1033;52.560;13.374;2023-09-19T06:13:08;100302.06;;;17.09;90.63
67015;BME280;1033;52.560;13.374;2023-09-19T06:15:38;100300.53;;;17.23;89.65
67015;BME280;1033;52.560;13.374;2023-09-19T06:21:44;100313.94;;;17.56;86.56
67015;BME280;1033;52.560;13.374;2023-09-19T06:24:14;100309.16;;;17.73;85.63
67015;BME280;1033;52.560;13.374;2023-09-19T06:26:45;100323.72;;;17.79;85.17
67015;BME280;1033;52.560;13.374;2023-09-19T06:29:15;100321.00;;;17.84;85.35
67015;BME280;1033;52.560;13.374;2023-09-19T06:31:44;100315.09;;;18.02;83.43
67015;BME280;1033;52.560;13.374;2023-09-19T06:34:13;100309.13;;;18.10;82.67
67015;BME280;1033;52.560;13.374;2023-09-19T06:36:43;100329.44;;;18.19;82.56
67015;BME280;1033;52.560;13.374;2023-09-19T06:39:12;100319.31;;;18.25;82.00
67015;BME280;1033;52.560;13.374;2023-09-19T06:41:41;100328.28;;;18.57;80.35
67015;BME280;1033;52.560;13.374;2023-09-19T06:44:12;100329.94;;;18.74;79.36
67015;BME280;1033;52.560;13.374;2023-09-19T06:46:41;100331.09;;;18.93;77.40
67015;BME280;1033;52.560;13.374;2023-09-19T06:49:12;100341.84;;;19.09;77.18
67015;BME280;1033;52.560;13.374;2023-09-19T06:51:41;100333.38;;;19.16;75.70
67015;BME280;1033;52.560;13.374;2023-09-19T06:54:11;100339.41;;;19.43;74.94
67015;BME280;1033;52.560;13.374;2023-09-19T06:56:40;100338.88;;;19.67;74.04
67015;BME280;1033;52.560;13.374;2023-09-19T06:59:12;100340.53;;;19.93;71.72
67015;BME280;1033;52.560;13.374;2023-09-19T07:01:42;100337.22;;;19.91;70.87
67015;BME280;1033;52.560;13.374;2023-09-19T07:04:12;100342.63;;;20.26;69.90
67015;BME280;1033;52.560;13.374;2023-09-19T07:06:41;100343.69;;;20.51;68.87
67015;BME280;1033;52.560;13.374;2023-09-19T07:09:10;100350.41;;;20.78;67.73
67015;BME280;1033;52.560;13.374;2023-09-19T07:12:10;100354.94;;;21.08;66.67
67015;BME280;1033;52.560;13.374;2023-09-19T07:14:42;100359.84;;;21.11;66.05
67015;BME280;1033;52.560;13.374;2023-09-19T07:17:11;100355.91;;;20.78;66.02
67015;BME280;1033;52.560;13.374;2023-09-19T07:19:45;100361.84;;;20.42;67.18
67015;BME280;1033;52.560;13.374;2023-09-19T07:26:23;100362.72;;;20.32;67.83
67015;BME280;1033;52.560;13.374;2023-09-19T07:28:54;100373.75;;;19.61;69.32
67015;BME280;1033;52.560;13.374;2023-09-19T07:31:25;100375.06;;;19.28;71.12
67015;BME280;1033;52.560;13.374;2023-09-19T07:33:54;100381.94;;;19.26;70.94
67015;BME280;1033;52.560;13.374;2023-09-19T07:36:24;100386.03;;;19.33;70.37
67015;BME280;1033;52.560;13.374;2023-09-19T07:42:46;100378.31;;;19.10;70.18
67015;BME280;1033;52.560;13.374;2023-09-19T07:45:15;100383.84;;;19.20;70.00
67015;BME280;1033;52.560;13.374;2023-09-19T07:47:47;100394.78;;;19.10;69.66
67015;BME280;1033;52.560;13.374;2023-09-19T07:54:30;100405.88;;;19.50;66.14
67015;BME280;1033;52.560;13.374;2023-09-19T07:57:03;100414.09;;;19.61;65.53
67015;BME280;1033;52.560;13.374;2023-09-19T08:11:43;100403.13;;;19.76;64.53
67015;BME280;1033;52.560;13.374;2023-09-19T08:14:13;100400.38;;;19.71;64.93
67015;BME280;1033;52.560;13.374;2023-09-19T08:16:42;100404.75;;;19.77;63.91
67015;BME280;1033;52.560;13.374;2023-09-19T08:19:12;100410.78;;;19.53;64.17
67015;BME280;1033;52.560;13.374;2023-09-19T08:21:42;100423.91;;;19.31;63.69
67015;BME280;1033;52.560;13.374;2023-09-19T08:24:14;100414.28;;;19.29;64.24
67015;BME280;1033;52.560;13.374;2023-09-19T08:26:46;100413.19;;;19.30;64.30
67015;BME280;1033;52.560;13.374;2023-09-19T08:29:15;100412.91;;;19.16;63.63
67015;BME280;1033;52.560;13.374;2023-09-19T08:31:46;100425.72;;;18.95;64.38
67015;BME280;1033;52.560;13.374;2023-09-19T08:34:54;100423.22;;;18.89;65.50
67015;BME280;1033;52.560;13.374;2023-09-19T08:37:44;100423.75;;;18.86;66.30
67015;BME280;1033;52.560;13.374;2023-09-19T08:40:14;100433.47;;;18.56;67.35
67015;BME280;1033;52.560;13.374;2023-09-19T08:42:51;100427.94;;;18.51;67.99
67015;BME280;1033;52.560;13.374;2023-09-19T08:45:22;100427.44;;;18.54;67.77
67015;BME280;1033;52.560;13.374;2023-09-19T08:48:04;100436.97;;;18.99;67.34
67015;BME280;1033;52.560;13.374;2023-09-19T08:50:43;100437.06;;;19.24;66.22
67015;BME280;1033;52.560;13.374;2023-09-19T08:53:26;100450.75;;;19.19;65.37
67015;BME280;1033;52.560;13.374;2023-09-19T08:55:57;100438.34;;;18.96;65.43
67015;BME280;1033;52.560;13.374;2023-09-19T08:58:34;100446.84;;;19.00;65.55
67015;BME280;1033;52.560;13.374;2023-09-19T09:01:08;100440.88;;;19.23;64.67
67015;BME280;1033;52.560;13.374;2023-09-19T09:03:41;100449.97;;;19.34;63.60
67015;BME280;1033;52.560;13.374;2023-09-19T09:06:17;100447.47;;;19.32;63.45
67015;BME280;1033;52.560;13.374;2023-09-19T09:08:47;100451.97;;;19.53;63.94
67015;BME280;1033;52.560;13.374;2023-09-19T09:11:17;100456.38;;;20.15;61.47
67015;BME280;1033;52.560;13.374;2023-09-19T09:13:49;100457.47;;;20.29;60.31
67015;BME280;1033;52.560;13.374;2023-09-19T09:16:18;100461.31;;;20.28;60.14
67015;BME280;1033;52.560;13.374;2023-09-19T09:18:47;100471.16;;;20.75;59.19
67015;BME280;1033;52.560;13.374;2023-09-19T09:21:21;100467.28;;;21.45;57.24
67015;BME280;1033;52.560;13.374;2023-09-19T09:23:53;100466.16;;;21.95;55.17
67015;BME280;1033;52.560;13.374;2023-09-19T09:26:52;100461.31;;;21.77;53.76
67015;BME280;1033;52.560;13.374;2023-09-19T09:29:41;100459.59;;;21.86;53.52
67015;BME280;1033;52.560;13.374;2023-09-19T09:32:18;100458.34;;;21.68;53.80
67015;BME280;1033;52.560;13.374;2023-09-19T09:34:50;100468.00;;;21.17;55.57
67015;BME280;1033;52.560;13.374;2023-09-19T09:37:20;100470.06;;;20.76;55.65
67015;BME280;1033;52.560;13.374;2023-09-19T09:39:53;100469.47;;;20.89;55.64
67015;BME280;1033;52.560;13.374;2023-09-19T09:42:31;100467.16;;;21.16;53.11
67015;BME280;1033;52.560;13.374;2023-09-19T09:45:17;100467.75;;;21.13;54.09
67015;BME280;1033;52.560;13.374;2023-09-19T09:47:48;100466.53;;;21.35;53.37
67015;BME280;1033;52.560;13.374;2023-09-19T09:50:52;100470.75;;;21.66;51.53
67015;BME280;1033;52.560;13.374;2023-09-19T09:57:08;100464.88;;;21.78;51.05
67015;BME280;1033;52.560;13.374;2023-09-19T09:59:46;100477.38;;;22.04;50.79
67015;BME280;1033;52.560;13.374;2023-09-19T10:02:27;100464.50;;;21.89;50.05
67015;BME280;1033;52.560;13.374;2023-09-19T10:05:12;100468.97;;;22.19;49.47
67015;BME280;1033;52.560;13.374;2023-09-19T10:07:49;100483.66;;;22.09;48.71
67015;BME280;1033;52.560;13.374;2023-09-19T10:10:30;100488.72;;;22.31;48.52
67015;BME280;1033;52.560;13.374;2023-09-19T10:13:22;100481.97;;;22.14;47.31
67015;BME280;1033;52.560;13.374;2023-09-19T10:15:55;100483.06;;;21.74;48.38
67015;BME280;1033;52.560;13.374;2023-09-19T10:18:28;100476.00;;;21.62;48.51
67015;BME280;1033;52.560;13.374;2023-09-19T10:21:02;100479.34;;;21.54;49.05
67015;BME280;1033;52.560;13.374;2023-09-19T10:23:37;100469.16;;;21.55;48.80
67015;BME280;1033;52.560;13.374;2023-09-19T10:26:10;100468.84;;;21.61;49.70
67015;BME280;1033;52.560;13.374;2023-09-19T10:28:40;100481.41;;;21.34;48.15
67015;BME280;1033;52.560;13.374;2023-09-19T10:31:10;100485.91;;;21.14;47.99
67015;BME280;1033;52.560;13.374;2023-09-19T10:33:43;100474.91;;;20.99;47.98
67015;BME280;1033;52.560;13.374;2023-09-19T10:36:13;100472.13;;;21.09;47.21
67015;BME280;1033;52.560;13.374;2023-09-19T10:38:44;100472.63;;;21.21;47.10
67015;BME280;1033;52.560;13.374;2023-09-19T10:41:15;100466.88;;;21.13;46.70
67015;BME280;1033;52.560;13.374;2023-09-19T10:43:49;100462.22;;;21.08;47.00
67015;BME280;1033;52.560;13.374;2023-09-19T10:46:22;100466.69;;;21.53;47.02
67015;BME280;1033;52.560;13.374;2023-09-19T10:48:54;100470.91;;;21.80;44.69
67015;BME280;1033;52.560;13.374;2023-09-19T10:51:31;100477.19;;;21.90;43.78
67015;BME280;1033;52.560;13.374;2023-09-19T10:54:05;100476.16;;;21.81;43.74
67015;BME280;1033;52.560;13.374;2023-09-19T10:56:43;100477.16;;;21.95;43.60
67015;BME280;1033;52.560;13.374;2023-09-19T10:59:17;100494.09;;;22.13;43.62
67015;BME280;1033;52.560;13.374;2023-09-19T11:01:47;100482.47;;;22.21;43.35
67015;BME280;1033;52.560;13.374;2023-09-19T11:04:24;100477.25;;;22.48;42.43
67015;BME280;1033;52.560;13.374;2023-09-19T11:07:04;100478.50;;;22.61;43.09
67015;BME280;1033;52.560;13.374;2023-09-19T11:09:54;100468.69;;;22.49;41.79
67015;BME280;1033;52.560;13.374;2023-09-19T11:12:48;100489.72;;;22.12;42.86
67015;BME280;1033;52.560;13.374;2023-09-19T11:18:51;100487.41;;;22.24;42.94
67015;BME280;1033;52.560;13.374;2023-09-19T11:21:53;100489.28;;;22.28;42.99
67015;BME280;1033;52.560;13.374;2023-09-19T11:24:30;100485.78;;;22.46;42.40
67015;BME280;1033;52.560;13.374;2023-09-19T11:27:26;100480.91;;;22.67;42.70
67015;BME280;1033;52.560;13.374;2023-09-19T11:30:25;100487.31;;;22.34;42.04
67015;BME280;1033;52.560;13.374;2023-09-19T11:33:16;100489.72;;;22.12;42.72
67015;BME280;1033;52.560;13.374;2023-09-19T11:40:08;100485.88;;;22.70;41.18
67015;BME280;1033;52.560;13.374;2023-09-19T11:42:53;100493.41;;;22.88;40.51
67015;BME280;1033;52.560;13.374;2023-09-19T11:53:06;100489.66;;;22.79;40.78
67015;BME280;1033;52.560;13.374;2023-09-19T11:55:43;100488.63;;;22.07;40.96
67015;BME280;1033;52.560;13.374;2023-09-19T11:58:15;100490.41;;;21.88;41.30
67015;BME280;1033;52.560;13.374;2023-09-19T12:00:46;100487.03;;;22.01;41.60
67015;BME280;1033;52.560;13.374;2023-09-19T12:06:57;100501.38;;;22.32;41.35
67015;BME280;1033;52.560;13.374;2023-09-19T12:09:26;100503.47;;;22.17;41.30
67015;BME280;1033;52.560;13.374;2023-09-19T12:11:57;100507.41;;;22.05;41.92
67015;BME280;1033;52.560;13.374;2023-09-19T12:14:27;100495.56;;;22.05;42.05
67015;BME280;1033;52.560;13.374;2023-09-19T12:16:56;100499.47;;;22.28;41.85
67015;BME280;1033;52.560;13.374;2023-09-19T12:23:01;100503.16;;;22.47;41.08
67015;BME280;1033;52.560;13.374;2023-09-19T12:25:42;100497.66;;;22.47;40.49
67015;BME280;1033;52.560;13.374;2023-09-19T12:28:16;100484.09;;;22.56;40.76
67015;BME280;1033;52.560;13.374;2023-09-19T12:30:46;100499.91;;;22.45;40.43
67015;BME280;1033;52.560;13.374;2023-09-19T12:33:17;100497.22;;;22.64;40.33
67015;BME280;1033;52.560;13.374;2023-09-19T12:35:48;100496.13;;;22.36;40.86
67015;BME280;1033;52.560;13.374;2023-09-19T12:38:44;100498.25;;;22.44;40.73
67015;BME280;1033;52.560;13.374;2023-09-19T12:42:39;100485.59;;;22.67;40.18
67015;BME280;1033;52.560;13.374;2023-09-19T12:45:13;100497.28;;;22.87;40.11
67015;BME280;1033;52.560;13.374;2023-09-19T12:51:12;100495.38;;;22.54;39.52
67015;BME280;1033;52.560;13.374;2023-09-19T12:53:42;100497.63;;;22.18;39.74
67015;BME280;1033;52.560;13.374;2023-09-19T13:00:01;100503.38;;;22.27;40.53
67015;BME280;1033;52.560;13.374;2023-09-19T13:02:35;100512.06;;;22.39;40.58
67015;BME280;1033;52.560;13.374;2023-09-19T13:05:04;100509.78;;;22.51;39.96
67015;BME280;1033;52.560;13.374;2023-09-19T13:07:41;100515.19;;;22.27;39.97
67015;BME280;1033;52.560;13.374;2023-09-19T13:10:15;100506.88;;;22.32;40.72
67015;BME280;1033;52.560;13.374;2023-09-19T13:12:45;100504.56;;;22.16;40.91
67015;BME280;1033;52.560;13.374;2023-09-19T13:15:15;100503.13;;;21.79;41.01
67015;BME280;1033;52.560;13.374;2023-09-19T13:17:50;100501.41;;;21.88;41.72
67015;BME280;1033;52.560;13.374;2023-09-19T13:24:18;100495.63;;;21.95;41.92
67015;BME280;1033;52.560;13.374;2023-09-19T13:30:55;100498.50;;;22.14;40.84
67015;BME280;1033;52.560;13.374;2023-09-19T13:33:29;100502.03;;;21.80;41.90
67015;BME280;1033;52.560;13.374;2023-09-19T13:48:04;100495.06;;;21.54;42.67
67015;BME280;1033;52.560;13.374;2023-09-19T13:54:48;100485.44;;;21.90;42.13
67015;BME280;1033;52.560;13.374;2023-09-19T13:57:24;100485.47;;;21.85;42.79
67015;BME280;1033;52.560;13.374;2023-09-19T13:59:54;100488.63;;;22.07;42.36
67015;BME280;1033;52.560;13.374;2023-09-19T14:02:24;100494.81;;;21.94;41.47
67015;BME280;1033;52.560;13.374;2023-09-19T14:04:54;100490.41;;;21.88;42.62
67015;BME280;1033;52.560;13.374;2023-09-19T14:07:24;100471.75;;;21.80;43.10
67015;BME280;1033;52.560;13.374;2023-09-19T14:09:55;100483.88;;;21.74;42.38
67015;BME280;1033;52.560;13.374;2023-09-19T14:12:25;100487.09;;;21.96;42.61
67015;BME280;1033;52.560;13.374;2023-09-19T14:14:57;100488.44;;;21.99;42.59
67015;BME280;1033;52.560;13.374;2023-09-19T14:17:26;100483.81;;;21.84;41.78
67015;BME280;1033;52.560;13.374;2023-09-19T14:19:56;100482.78;;;21.75;42.38
67015;BME280;1033;52.560;13.374;2023-09-19T14:22:25;100475.25;;;21.96;41.86
67015;BME280;1033;52.560;13.374;2023-09-19T14:24:56;100474.41;;;21.90;41.66
67015;BME280;1033;52.560;13.374;2023-09-19T14:27:27;100478.00;;;21.91;42.29
67015;BME280;1033;52.560;13.374;2023-09-19T14:29:56;100474.16;;;21.92;42.16
67015;BME280;1033;52.560;13.374;2023-09-19T14:32:26;100481.03;;;21.89;42.75
67015;BME280;1033;52.560;13.374;2023-09-19T14:34:55;100476.69;;;21.83;43.05
67015;BME280;1033;52.560;13.374;2023-09-19T14:37:26;100481.25;;;21.98;43.36
67015;BME280;1033;52.560;13.374;2023-09-19T14:39:57;100476.22;;;22.10;42.69
67015;BME280;1033;52.560;13.374;2023-09-19T14:42:27;100475.63;;;22.13;42.85
67015;BME280;1033;52.560;13.374;2023-09-19T14:44:56;100480.34;;;22.07;43.70
67015;BME280;1033;52.560;13.374;2023-09-19T14:47:25;100483.59;;;21.81;43.36
67015;BME280;1033;52.560;13.374;2023-09-19T14:49:56;100471.19;;;21.83;43.21
67015;BME280;1033;52.560;13.374;2023-09-19T14:52:26;100478.94;;;21.76;43.76
67015;BME280;1033;52.560;13.374;2023-09-19T14:54:57;100463.63;;;21.60;43.41
67015;BME280;1033;52.560;13.374;2023-09-19T14:57:27;100466.47;;;21.45;43.97
67015;BME280;1033;52.560;13.374;2023-09-19T14:59:57;100473.63;;;21.46;43.73
67015;BME280;1033;52.560;13.374;2023-09-19T15:02:26;100464.81;;;21.49;43.51